Time;durP1;ratioP1;P1;durP2;ratioP2;P2;SDS_P1;SDS_P2;PMS_P1;PMS_P2;Temp;Humidity;BMP_temperature;BMP_pressure;BME280_temperature;BME280_humidity;BME280_pressure;Samples;Min_cycle;Max_cycle;Signal;HPM_P1;HPM_P2
2021/11/29 00:01:00;;;;;;;;;;;;;;;1.06;95.17;96083.28;1747495;80;21937;-85
2021/11/29 00:03:27;;;;;;;;;;;;;;;1.05;95.21;96090.18;1756878;80;25482;-85
2021/11/29 00:05:53;;;;;;;;;;;;;;;1.05;95.23;96092.75;1777904;79;25302;-85
2021/11/29 00:08:19;;;;;;;;;;;;;;;1.03;95.27;96104.94;1777146;79;20489;-85
2021/11/29 00:10:46;;;;;;;;;;;;;;;1.05;95.28;96099.66;1768560;80;24947;-85
2021/11/29 00:13:15;;;;;;;;;;;;;;;1.08;95.31;96110.59;1757854;80;22214;-85
2021/11/29 00:15:41;;;;;;;;;;;;;;;1.07;95.34;96114.55;1758259;80;26015;-85
2021/11/29 00:18:07;;;;;;;;;;;;;;;1.09;95.40;96110.92;1739446;81;24442;-85
2021/11/29 00:20:33;;;;;;;;;;;;;;;1.06;95.42;96110.32;1759649;80;20260;-85
2021/11/29 00:23:00;;;;;;;;;;;;;;;1.05;95.45;96103.05;1735376;80;24735;-85
2021/11/29 00:25:26;;;;;;;;;;;;;;;1.08;95.49;96098.17;1754822;80;22200;-85
2021/11/29 00:27:55;;;;;;;;;;;;;;;1.12;95.52;96111.19;1742332;81;26207;-85
2021/11/29 00:30:21;;;;;;;;;;;;;;;1.12;95.55;96106.86;1750625;81;25113;-86
2021/11/29 00:32:50;;;;;;;;;;;;;;;1.10;95.55;96102.27;1754837;81;20270;-85
2021/11/29 00:35:19;;;;;;;;;;;;;;;1.08;95.57;96112.34;1753392;81;24758;-85
2021/11/29 00:37:45;;;;;;;;;;;;;;;1.00;95.57;96112.03;1746501;79;22001;-86
2021/11/29 00:40:11;;;;;;;;;;;;;;;0.97;95.56;96114.37;1742468;80;26153;-86
2021/11/29 00:42:38;;;;;;;;;;;;;;;0.97;95.56;96113.54;1752010;81;23905;-86
2021/11/29 00:45:05;;;;;;;;;;;;;;;0.97;95.55;96108.39;1743641;81;20448;-86
2021/11/29 00:47:31;;;;;;;;;;;;;;;0.93;95.56;96106.96;1750440;80;25051;-86
2021/11/29 00:49:57;;;;;;;;;;;;;;;0.92;95.58;96113.03;1754737;81;22015;-86
2021/11/29 00:52:24;;;;;;;;;;;;;;;0.93;95.59;96111.63;1752078;79;26038;-86
2021/11/29 00:54:52;;;;;;;;;;;;;;;0.96;95.61;96114.00;1746225;81;24685;-86
2021/11/29 00:57:18;;;;;;;;;;;;;;;0.98;95.66;96113.45;1748564;80;20361;-86
2021/11/29 00:59:46;;;;;;;;;;;;;;;1.00;95.71;96114.14;1750232;80;24819;-85
2021/11/29 01:02:13;;;;;;;;;;;;;;;1.03;95.76;96107.52;1741717;81;22018;-86
2021/11/29 01:04:41;;;;;;;;;;;;;;;1.02;95.80;96102.45;1768711;80;22503;-86
2021/11/29 01:07:09;;;;;;;;;;;;;;;0.99;95.82;96107.34;1778118;80;24485;-85
2021/11/29 01:09:35;;;;;;;;;;;;;;;0.95;95.83;96111.06;1773207;79;20207;-85
2021/11/29 01:12:07;;;;;;;;;;;;;;;0.92;95.83;96107.42;1773131;80;24796;-85
2021/11/29 01:14:34;;;;;;;;;;;;;;;0.90;95.82;96115.70;1780648;80;21920;-85
2021/11/29 01:17:00;;;;;;;;;;;;;;;0.91;95.85;96120.39;1779539;80;26925;-85
2021/11/29 01:19:29;;;;;;;;;;;;;;;0.92;95.87;96120.30;1775189;80;24745;-85
2021/11/29 01:21:55;;;;;;;;;;;;;;;0.97;95.91;96126.41;1764479;80;20432;-85
2021/11/29 01:24:21;;;;;;;;;;;;;;;1.02;95.93;96131.61;1770444;79;25473;-85
2021/11/29 01:26:47;;;;;;;;;;;;;;;0.99;95.95;96122.79;1764062;81;22790;-85
2021/11/29 01:29:13;;;;;;;;;;;;;;;0.99;95.98;96121.50;1741790;80;26769;-85
2021/11/29 01:31:39;;;;;;;;;;;;;;;0.99;96.00;96133.09;1757940;79;24525;-85
2021/11/29 01:34:07;;;;;;;;;;;;;;;1.01;96.02;96130.42;1753737;81;20481;-84
2021/11/29 01:36:33;;;;;;;;;;;;;;;0.98;96.05;96118.59;1747375;80;24754;-84
2021/11/29 01:39:01;;;;;;;;;;;;;;;0.97;96.08;96123.38;1752848;81;21895;-84
2021/11/29 01:41:27;;;;;;;;;;;;;;;0.99;96.08;96118.10;1759729;81;26941;-85
2021/11/29 01:43:53;;;;;;;;;;;;;;;0.98;96.11;96116.02;1750036;80;24821;-85
2021/11/29 01:46:19;;;;;;;;;;;;;;;0.98;96.14;96120.34;1760337;81;20208;-84
2021/11/29 01:48:46;;;;;;;;;;;;;;;0.97;96.15;96124.66;1751298;81;24829;-85
2021/11/29 01:51:12;;;;;;;;;;;;;;;0.99;96.16;96115.53;1738097;81;22143;-85
2021/11/29 01:53:39;;;;;;;;;;;;;;;1.02;96.20;96120.02;1748745;81;26607;-84
2021/11/29 01:56:05;;;;;;;;;;;;;;;1.04;96.22;96127.16;1749540;80;24487;-84
2021/11/29 01:58:32;;;;;;;;;;;;;;;1.09;96.24;96126.87;1742528;81;20219;-85
2021/11/29 02:01:00;;;;;;;;;;;;;;;1.15;96.27;96121.27;1773706;80;24840;-85
2021/11/29 02:03:31;;;;;;;;;;;;;;;1.20;96.33;96122.59;1772992;80;22230;-85
2021/11/29 02:05:58;;;;;;;;;;;;;;;1.22;96.34;96128.93;1771416;79;26279;-84
2021/11/29 02:08:24;;;;;;;;;;;;;;;1.22;96.37;96129.76;1735903;80;24370;-84
2021/11/29 02:10:51;;;;;;;;;;;;;;;1.19;96.39;96127.88;1767580;80;20284;-84
2021/11/29 02:13:18;;;;;;;;;;;;;;;1.18;96.40;96123.19;1778801;80;24793;-85
2021/11/29 02:15:50;;;;;;;;;;;;;;;1.17;96.42;96124.11;1772021;80;22725;-84
2021/11/29 02:18:12;;;;;;;;;;;;;;;1.17;96.41;96125.39;1759579;80;26971;-84
2021/11/29 02:20:38;;;;;;;;;;;;;;;1.14;96.37;96129.94;1760616;80;25316;-84
2021/11/29 02:23:06;;;;;;;;;;;;;;;1.10;96.37;96133.64;1734505;81;20267;-84
2021/11/29 02:25:36;;;;;;;;;;;;;;;1.03;96.34;96129.40;1757630;81;24860;-85
2021/11/29 02:28:00;;;;;;;;;;;;;;;0.98;96.33;96131.47;1753254;81;22674;-85
2021/11/29 02:30:27;;;;;;;;;;;;;;;0.95;96.29;96141.96;1743633;79;26296;-84
2021/11/29 02:32:53;;;;;;;;;;;;;;;0.94;96.28;96142.05;1753186;80;24624;-85
2021/11/29 02:35:27;;;;;;;;;;;;;;;0.93;96.27;96144.30;1755358;81;20193;-84
2021/11/29 02:37:54;;;;;;;;;;;;;;;0.94;96.28;96146.75;1747688;81;25620;-85
2021/11/29 02:40:20;;;;;;;;;;;;;;;0.91;96.27;96148.72;1755731;81;22656;-86
2021/11/29 02:42:46;;;;;;;;;;;;;;;0.90;96.27;96150.47;1743191;81;26036;-85
2021/11/29 02:45:12;;;;;;;;;;;;;;;0.90;96.28;96150.47;1738496;81;24557;-86
2021/11/29 02:47:41;;;;;;;;;;;;;;;0.92;96.29;96156.34;1753771;80;20873;-84
2021/11/29 02:50:13;;;;;;;;;;;;;;;0.94;96.30;96155.76;1747483;81;25700;-85
2021/11/29 02:52:40;;;;;;;;;;;;;;;0.97;96.33;96154.28;1763014;79;22116;-84
2021/11/29 02:55:08;;;;;;;;;;;;;;;1.00;96.35;96152.77;1756067;81;22851;-85
2021/11/29 02:57:34;;;;;;;;;;;;;;;1.01;96.40;96148.45;1748564;79;24462;-85
2021/11/29 03:00:02;;;;;;;;;;;;;;;1.00;96.45;96152.77;1749048;81;20258;-85
2021/11/29 03:02:31;;;;;;;;;;;;;;;1.02;96.43;96152.67;1739199;82;25397;-84
2021/11/29 03:04:57;;;;;;;;;;;;;;;1.02;96.47;96152.67;1714337;82;22101;-84
2021/11/29 03:07:26;;;;;;;;;;;;;;;1.06;96.51;96147.20;1742499;81;26082;-85
2021/11/29 03:09:52;;;;;;;;;;;;;;;1.11;96.53;96148.99;1724085;82;24861;-84
2021/11/29 03:12:20;;;;;;;;;;;;;;;1.10;96.54;96146.05;1744958;81;20241;-84
2021/11/29 03:14:46;;;;;;;;;;;;;;;1.11;96.55;96148.17;1756445;79;24871;-84
2021/11/29 03:17:12;;;;;;;;;;;;;;;1.12;96.57;96150.64;1778838;80;22001;-84
2021/11/29 03:19:39;;;;;;;;;;;;;;;1.07;96.58;96143.70;1768954;80;25951;-85
2021/11/29 03:22:07;;;;;;;;;;;;;;;1.09;96.60;96146.98;1769584;79;24561;-84
2021/11/29 03:24:36;;;;;;;;;;;;;;;1.12;96.61;96147.24;1780887;79;20467;-84
2021/11/29 03:27:02;;;;;;;;;;;;;;;1.12;96.61;96144.20;1776418;80;24815;-84
2021/11/29 03:29:28;;;;;;;;;;;;;;;1.11;96.60;96141.27;1782220;79;21917;-84
2021/11/29 03:31:56;;;;;;;;;;;;;;;1.05;96.60;96139.57;1766947;79;25985;-85
2021/11/29 03:34:22;;;;;;;;;;;;;;;1.00;96.58;96137.78;1767863;80;24426;-85
2021/11/29 03:36:50;;;;;;;;;;;;;;;1.03;96.57;96141.45;1774332;80;20230;-85
2021/11/29 03:39:21;;;;;;;;;;;;;;;1.02;96.56;96136.77;1785367;78;24955;-84
2021/11/29 03:41:47;;;;;;;;;;;;;;;1.00;96.55;96137.31;1779629;79;22024;-84
2021/11/29 03:44:14;;;;;;;;;;;;;;;1.04;96.56;96138.75;1784943;79;26042;-84
2021/11/29 03:46:41;;;;;;;;;;;;;;;1.08;96.57;96133.77;1777367;79;24477;-84
2021/11/29 03:49:07;;;;;;;;;;;;;;;1.11;96.58;96127.56;1768372;79;20188;-84
2021/11/29 03:51:33;;;;;;;;;;;;;;;1.10;96.57;96128.48;1780243;79;25413;-84
2021/11/29 03:53:59;;;;;;;;;;;;;;;1.09;96.59;96123.00;1772596;79;20252;-84
2021/11/29 03:56:25;;;;;;;;;;;;;;;1.08;96.57;96127.79;1768712;79;21105;-84
2021/11/29 03:58:51;;;;;;;;;;;;;;;1.10;96.61;96134.92;1777515;79;25461;-84
2021/11/29 04:01:17;;;;;;;;;;;;;;;1.13;96.61;96130.87;1785404;78;20205;-84
2021/11/29 04:03:43;;;;;;;;;;;;;;;1.10;96.62;96140.91;1780710;79;20631;-84
2021/11/29 04:06:10;;;;;;;;;;;;;;;1.11;96.63;96145.59;1779684;79;22745;-84
2021/11/29 04:08:36;;;;;;;;;;;;;;;1.12;96.63;96148.53;1776985;80;26041;-84
2021/11/29 04:11:03;;;;;;;;;;;;;;;1.13;96.64;96148.89;1766134;79;24531;-84
2021/11/29 04:13:29;;;;;;;;;;;;;;;1.14;96.64;96151.37;1773774;80;20229;-84
2021/11/29 04:15:55;;;;;;;;;;;;;;;1.15;96.66;96159.44;1781124;79;24838;-85
2021/11/29 04:18:21;;;;;;;;;;;;;;;1.14;96.64;96159.56;1773868;78;20405;-85
2021/11/29 04:20:47;;;;;;;;;;;;;;;1.12;96.65;96162.70;1767649;80;20985;-84
2021/11/29 04:23:13;;;;;;;;;;;;;;;1.11;96.65;96164.91;1770109;80;25500;-84
2021/11/29 04:25:48;;;;;;;;;;;;;;;1.04;96.64;96164.50;1768878;80;20155;-84
2021/11/29 04:28:07;;;;;;;;;;;;;;;1.02;96.63;96163.80;1768316;79;24918;-84
2021/11/29 04:30:35;;;;;;;;;;;;;;;1.09;96.61;96167.58;1773637;80;21894;-84
2021/11/29 04:33:01;;;;;;;;;;;;;;;1.08;96.61;96165.95;1775934;80;26089;-84
2021/11/29 04:35:29;;;;;;;;;;;;;;;1.09;96.61;96157.28;1783261;79;24416;-84
2021/11/29 04:37:55;;;;;;;;;;;;;;;1.13;96.63;96157.45;1772846;80;20624;-84
2021/11/29 04:40:21;;;;;;;;;;;;;;;1.16;96.65;96155.11;1773026;80;20283;-84
2021/11/29 04:42:47;;;;;;;;;;;;;;;1.17;96.65;96161.91;1773960;80;20308;-85
2021/11/29 04:45:13;;;;;;;;;;;;;;;1.13;96.65;96170.33;1803260;79;21047;-84
2021/11/29 04:47:42;;;;;;;;;;;;;;;1.12;96.64;96171.71;1767216;80;25240;-85
2021/11/29 04:50:08;;;;;;;;;;;;;;;1.12;96.63;96166.09;1775729;80;20161;-85
2021/11/29 04:52:35;;;;;;;;;;;;;;;1.17;96.65;96167.89;1765675;80;25329;-84
2021/11/29 04:55:04;;;;;;;;;;;;;;;1.22;96.67;96165.82;1746397;80;20192;-84
2021/11/29 04:57:30;;;;;;;;;;;;;;;1.19;96.66;96167.34;1775476;80;26847;-84
2021/11/29 04:59:56;;;;;;;;;;;;;;;1.14;96.66;96173.27;1776573;80;24512;-85
2021/11/29 05:02:23;;;;;;;;;;;;;;;1.08;96.64;96172.40;1759856;79;20341;-85
2021/11/29 05:04:50;;;;;;;;;;;;;;;1.07;96.63;96175.89;1761992;80;24992;-85
2021/11/29 05:07:16;;;;;;;;;;;;;;;1.03;96.62;96162.88;1765501;80;22004;-85
2021/11/29 05:09:45;;;;;;;;;;;;;;;1.00;96.60;96163.06;1768536;80;26201;-84
2021/11/29 05:12:14;;;;;;;;;;;;;;;0.98;96.57;96164.94;1779080;80;25073;-83
2021/11/29 05:14:43;;;;;;;;;;;;;;;1.02;96.58;96169.41;1766781;80;20178;-84
2021/11/29 05:17:09;;;;;;;;;;;;;;;1.07;96.58;96174.61;1762604;80;24930;-84
2021/11/29 05:19:38;;;;;;;;;;;;;;;1.09;96.60;96173.22;1774658;80;22642;-84
2021/11/29 05:22:04;;;;;;;;;;;;;;;1.11;96.59;96168.31;1770042;79;26746;-85
2021/11/29 05:24:31;;;;;;;;;;;;;;;1.10;96.63;96166.66;1763137;80;24484;-84
2021/11/29 05:26:57;;;;;;;;;;;;;;;1.11;96.65;96168.31;1768256;80;20205;-84
2021/11/29 05:29:23;;;;;;;;;;;;;;;1.12;96.63;96173.00;1766763;80;24817;-84
2021/11/29 05:31:50;;;;;;;;;;;;;;;1.13;96.64;96174.19;1751363;79;22055;-84
2021/11/29 05:34:16;;;;;;;;;;;;;;;1.09;96.64;96167.58;1762474;81;26189;-83
2021/11/29 05:36:44;;;;;;;;;;;;;;;1.06;96.62;96173.42;1762053;80;24457;-83
2021/11/29 05:39:11;;;;;;;;;;;;;;;1.02;96.60;96177.14;1744076;80;20134;-83
2021/11/29 05:41:37;;;;;;;;;;;;;;;1.01;96.59;96181.92;1746096;81;24833;-83
2021/11/29 05:44:06;;;;;;;;;;;;;;;1.02;96.61;96185.69;1740405;81;21097;-83
2021/11/29 05:46:32;;;;;;;;;;;;;;;1.03;96.61;96186.05;1766695;81;26707;-83
2021/11/29 05:48:58;;;;;;;;;;;;;;;1.02;96.59;96192.13;1747720;80;25013;-83
2021/11/29 05:51:25;;;;;;;;;;;;;;;1.01;96.58;96196.08;1755317;81;20174;-84
2021/11/29 05:53:52;;;;;;;;;;;;;;;0.99;96.60;96202.62;1748915;81;25453;-83
2021/11/29 05:56:18;;;;;;;;;;;;;;;0.99;96.59;96207.77;1754934;81;20241;-83
2021/11/29 05:58:44;;;;;;;;;;;;;;;1.02;96.57;96220.45;1752433;81;26076;-84
2021/11/29 06:01:16;;;;;;;;;;;;;;;1.00;96.59;96220.18;1750336;81;24477;-85
2021/11/29 06:03:38;;;;;;;;;;;;;;;0.96;96.58;96220.86;1742126;80;20497;-85
2021/11/29 06:06:05;;;;;;;;;;;;;;;0.96;96.58;96227.76;1765401;81;25430;-85
2021/11/29 06:08:31;;;;;;;;;;;;;;;0.95;96.56;96230.80;1756089;81;21920;-85
2021/11/29 06:10:57;;;;;;;;;;;;;;;0.96;96.57;96241.47;1743039;81;26012;-85
2021/11/29 06:13:23;;;;;;;;;;;;;;;0.97;96.58;96252.59;1746080;81;25269;-84
2021/11/29 06:15:50;;;;;;;;;;;;;;;0.93;96.58;96255.02;1759934;81;20382;-85
2021/11/29 06:18:16;;;;;;;;;;;;;;;0.90;96.58;96261.64;1760060;81;24209;-84
2021/11/29 06:20:49;;;;;;;;;;;;;;;0.89;96.58;96264.67;1757011;81;20333;-84
2021/11/29 06:23:15;;;;;;;;;;;;;;;0.92;96.56;96268.35;1755231;81;26802;-84
2021/11/29 06:25:41;;;;;;;;;;;;;;;0.94;96.58;96274.20;1751140;80;24462;-83
2021/11/29 06:28:08;;;;;;;;;;;;;;;0.93;96.59;96273.83;1754454;81;20214;-83
2021/11/29 06:30:34;;;;;;;;;;;;;;;0.91;96.60;96271.02;1752142;81;24710;-84
2021/11/29 06:33:02;;;;;;;;;;;;;;;0.84;96.57;96275.73;1760326;81;21968;-83
2021/11/29 06:35:29;;;;;;;;;;;;;;;0.85;96.60;96286.41;1693489;82;27052;-84
2021/11/29 06:38:04;;;;;;;;;;;;;;;0.89;96.60;96284.44;1711165;82;24472;-83
2021/11/29 06:40:33;;;;;;;;;;;;;;;0.93;96.64;96292.35;1715732;81;20214;-84
2021/11/29 06:42:59;;;;;;;;;;;;;;;0.92;96.64;96299.25;1691250;83;25522;-84
2021/11/29 06:45:30;;;;;;;;;;;;;;;0.88;96.66;96307.25;1776577;80;22148;-84
2021/11/29 06:48:00;;;;;;;;;;;;;;;0.87;96.65;96305.63;1767257;80;26761;-84
2021/11/29 06:50:23;;;;;;;;;;;;;;;0.90;96.66;96316.53;1692825;83;24481;-84
2021/11/29 06:52:49;;;;;;;;;;;;;;;0.94;96.67;96315.86;1769382;80;20218;-84
2021/11/29 06:55:16;;;;;;;;;;;;;;;0.98;96.71;96317.33;1773503;80;24836;-85
2021/11/29 06:57:43;;;;;;;;;;;;;;;0.95;96.72;96313.20;1769510;80;22098;-86
2021/11/29 07:00:10;;;;;;;;;;;;;;;0.93;96.72;96316.32;1762826;80;26178;-86
2021/11/29 07:02:41;;;;;;;;;;;;;;;0.91;96.72;96320.77;1748753;80;20220;-84
2021/11/29 07:05:13;;;;;;;;;;;;;;;0.89;96.71;96313.59;1774299;80;20269;-85
2021/11/29 07:07:45;;;;;;;;;;;;;;;0.88;96.71;96318.83;1769717;80;24779;-85
2021/11/29 07:10:08;;;;;;;;;;;;;;;0.89;96.75;96313.59;1770821;80;22170;-85
2021/11/29 07:12:35;;;;;;;;;;;;;;;0.90;96.75;96316.99;1765487;80;26071;-85
2021/11/29 07:15:02;;;;;;;;;;;;;;;0.90;96.76;96320.86;1778652;79;24309;-85
2021/11/29 07:17:28;;;;;;;;;;;;;;;0.91;96.78;96319.94;1771713;79;20240;-86
2021/11/29 07:19:54;;;;;;;;;;;;;;;0.88;96.76;96315.80;1757163;80;24207;-85
2021/11/29 07:22:23;;;;;;;;;;;;;;;0.88;96.76;96315.80;1760770;80;22061;-85
2021/11/29 07:24:50;;;;;;;;;;;;;;;0.89;96.75;96325.17;1761928;80;25981;-85
2021/11/29 07:27:19;;;;;;;;;;;;;;;0.91;96.75;96316.08;1768124;80;24690;-85
2021/11/29 07:29:46;;;;;;;;;;;;;;;0.92;96.78;96317.73;1765173;80;20288;-85
2021/11/29 07:32:12;;;;;;;;;;;;;;;0.91;96.77;96326.38;1765275;80;25264;-84
2021/11/29 07:34:38;;;;;;;;;;;;;;;0.92;96.78;96319.02;1758976;81;22310;-84
2021/11/29 07:37:04;;;;;;;;;;;;;;;0.94;96.81;96324.88;1763000;80;26028;-84
2021/11/29 07:39:30;;;;;;;;;;;;;;;0.94;96.81;96321.84;1771098;79;24548;-85
2021/11/29 07:41:59;;;;;;;;;;;;;;;0.95;96.82;96317.06;1777020;80;20263;-85
2021/11/29 07:44:25;;;;;;;;;;;;;;;0.94;96.82;96321.84;1756990;80;24807;-85
2021/11/29 07:46:51;;;;;;;;;;;;;;;0.99;96.86;96320.25;1763848;80;22049;-84
2021/11/29 07:49:17;;;;;;;;;;;;;;;0.99;96.85;96317.21;1771704;79;25493;-84
2021/11/29 07:51:45;;;;;;;;;;;;;;;1.02;96.87;96310.59;1777290;80;25223;-83
2021/11/29 07:54:12;;;;;;;;;;;;;;;0.99;96.87;96312.06;1775479;79;20306;-84
2021/11/29 07:56:38;;;;;;;;;;;;;;;0.98;96.87;96313.47;1765047;79;24784;-84
2021/11/29 07:59:04;;;;;;;;;;;;;;;0.95;96.85;96310.62;1767258;80;22215;-84
2021/11/29 08:01:30;;;;;;;;;;;;;;;0.96;96.88;96315.31;1764909;80;25958;-84
2021/11/29 08:03:56;;;;;;;;;;;;;;;0.94;96.86;96317.15;1767695;80;20286;-84
2021/11/29 08:06:22;;;;;;;;;;;;;;;0.94;96.84;96318.44;1767346;80;20271;-85
2021/11/29 08:08:48;;;;;;;;;;;;;;;0.94;96.85;96314.58;1776334;80;20208;-84
2021/11/29 08:11:14;;;;;;;;;;;;;;;0.96;96.85;96325.61;1781119;80;20909;-84
2021/11/29 08:13:43;;;;;;;;;;;;;;;0.93;96.83;96326.63;1780966;80;26055;-84
2021/11/29 08:16:10;;;;;;;;;;;;;;;0.91;96.83;96329.78;1802094;78;20244;-84
2021/11/29 08:18:36;;;;;;;;;;;;;;;0.86;96.81;96330.54;1772484;79;20210;-84
2021/11/29 08:21:02;;;;;;;;;;;;;;;0.90;96.79;96324.72;1765210;79;24901;-84
2021/11/29 08:23:28;;;;;;;;;;;;;;;0.92;96.81;96330.14;1777134;80;22038;-83
2021/11/29 08:25:54;;;;;;;;;;;;;;;0.93;96.77;96334.84;1782536;80;26011;-84
2021/11/29 08:28:21;;;;;;;;;;;;;;;0.94;96.79;96339.03;1778759;80;24481;-84
2021/11/29 08:30:48;;;;;;;;;;;;;;;0.93;96.78;96341.27;1771561;80;20239;-84
2021/11/29 08:33:14;;;;;;;;;;;;;;;0.87;96.77;96352.80;1771928;79;24734;-85
2021/11/29 08:35:41;;;;;;;;;;;;;;;0.82;96.77;96356.92;1777746;80;21980;-84
2021/11/29 08:38:07;;;;;;;;;;;;;;;0.79;96.73;96358.42;1724882;82;25999;-84
2021/11/29 08:40:34;;;;;;;;;;;;;;;0.80;96.73;96363.94;1719509;82;25226;-84
2021/11/29 08:43:02;;;;;;;;;;;;;;;0.81;96.70;96367.34;1706880;83;20337;-85
2021/11/29 08:45:32;;;;;;;;;;;;;;;0.85;96.71;96363.64;1730387;82;25389;-84
2021/11/29 08:47:57;;;;;;;;;;;;;;;0.88;96.71;96363.43;1693634;82;21866;-84
2021/11/29 08:50:24;;;;;;;;;;;;;;;0.91;96.73;96367.11;1752415;81;26802;-84
2021/11/29 08:52:52;;;;;;;;;;;;;;;0.96;96.78;96372.78;1753048;81;25037;-84
2021/11/29 08:55:18;;;;;;;;;;;;;;;1.00;96.79;96376.80;1762264;81;20570;-84
2021/11/29 08:57:50;;;;;;;;;;;;;;;1.00;96.80;96376.80;1747105;81;25449;-84
2021/11/29 09:00:17;;;;;;;;;;;;;;;1.02;96.84;96382.70;1753501;80;23017;-84
2021/11/29 09:02:44;;;;;;;;;;;;;;;1.07;96.84;96384.52;1743489;79;25893;-85
2021/11/29 09:05:10;;;;;;;;;;;;;;;1.10;96.87;96384.76;1748658;81;24531;-84
2021/11/29 09:07:37;;;;;;;;;;;;;;;1.08;96.85;96378.44;1751663;81;20194;-84
2021/11/29 09:10:04;;;;;;;;;;;;;;;1.06;96.84;96386.72;1750145;80;24915;-84
2021/11/29 09:12:30;;;;;;;;;;;;;;;1.02;96.83;96387.84;1756770;81;22083;-85
2021/11/29 09:14:56;;;;;;;;;;;;;;;1.02;96.82;96386.56;1741983;79;20946;-85
2021/11/29 09:17:25;;;;;;;;;;;;;;;1.01;96.77;96390.52;1746811;81;25226;-85
2021/11/29 09:19:51;;;;;;;;;;;;;;;0.98;96.75;96390.72;1757728;79;20316;-85
2021/11/29 09:22:18;;;;;;;;;;;;;;;0.96;96.72;96386.95;1740578;79;24726;-85
2021/11/29 09:24:44;;;;;;;;;;;;;;;0.96;96.70;96392.10;1762761;79;22164;-85
2021/11/29 09:27:10;;;;;;;;;;;;;;;0.94;96.66;96386.67;1749619;81;26018;-84
2021/11/29 09:29:36;;;;;;;;;;;;;;;0.96;96.64;96384.84;1754446;81;24415;-84
2021/11/29 09:32:04;;;;;;;;;;;;;;;0.94;96.62;96390.53;1734544;80;20224;-85
2021/11/29 09:34:31;;;;;;;;;;;;;;;0.91;96.60;96385.14;1746496;79;24854;-85
2021/11/29 09:36:58;;;;;;;;;;;;;;;0.90;96.59;96390.38;1740468;80;21984;-84
2021/11/29 09:39:24;;;;;;;;;;;;;;;0.89;96.55;96396.44;1761339;80;26980;-85
2021/11/29 09:41:50;;;;;;;;;;;;;;;0.84;96.52;96389.84;1759479;81;24487;-85
2021/11/29 09:44:16;;;;;;;;;;;;;;;0.79;96.49;96392.34;1755415;80;20309;-84
2021/11/29 09:46:44;;;;;;;;;;;;;;;0.77;96.45;96391.61;1752433;80;24935;-84
2021/11/29 09:49:10;;;;;;;;;;;;;;;0.76;96.39;96387.41;1724501;81;21984;-84
2021/11/29 09:51:36;;;;;;;;;;;;;;;0.76;96.37;96393.36;1751612;80;26020;-84
2021/11/29 09:54:04;;;;;;;;;;;;;;;0.78;96.35;96391.98;1746333;81;25245;-85
2021/11/29 09:56:32;;;;;;;;;;;;;;;0.77;96.33;96387.75;1764420;79;20197;-84
2021/11/29 09:58:58;;;;;;;;;;;;;;;0.74;96.31;96391.81;1737994;79;25533;-85
2021/11/29 10:01:24;;;;;;;;;;;;;;;0.72;96.28;96388.50;1752034;80;22120;-85
2021/11/29 10:03:53;;;;;;;;;;;;;;;0.73;96.25;96390.98;1743000;81;25990;-84
2021/11/29 10:06:20;;;;;;;;;;;;;;;0.72;96.24;96394.48;1759092;80;25418;-85
2021/11/29 10:08:46;;;;;;;;;;;;;;;0.74;96.23;96396.97;1759589;80;20180;-84
2021/11/29 10:11:13;;;;;;;;;;;;;;;0.73;96.23;96401.75;1751288;79;25018;-85
2021/11/29 10:13:50;;;;;;;;;;;;;;;0.71;96.23;96404.41;1767913;79;22647;-85
2021/11/29 10:16:30;;;;;;;;;;;;;;;0.69;96.20;96402.41;1746561;79;25995;-85
2021/11/29 10:18:56;;;;;;;;;;;;;;;0.71;96.17;96410.05;1742399;80;24300;-85
2021/11/29 10:21:23;;;;;;;;;;;;;;;0.75;96.16;96408.92;1740366;81;20312;-85
2021/11/29 10:23:51;;;;;;;;;;;;;;;0.76;96.20;96413.16;1756432;81;24725;-85
2021/11/29 10:26:19;;;;;;;;;;;;;;;0.79;96.19;96418.09;1758285;80;21944;-85
2021/11/29 10:28:46;;;;;;;;;;;;;;;0.81;96.18;96416.27;1751624;79;25966;-85
2021/11/29 10:31:20;;;;;;;;;;;;;;;0.81;96.17;96414.97;1759152;80;24612;-85
2021/11/29 10:33:55;;;;;;;;;;;;;;;0.79;96.16;96415.52;1757150;81;20260;-85
2021/11/29 10:36:22;;;;;;;;;;;;;;;0.76;96.14;96420.39;1752306;80;24959;-85
2021/11/29 10:38:53;;;;;;;;;;;;;;;0.74;96.11;96418.84;1772667;80;21999;-85
2021/11/29 10:41:21;;;;;;;;;;;;;;;0.74;96.06;96430.44;1767177;80;26773;-85
2021/11/29 10:43:47;;;;;;;;;;;;;;;0.72;96.04;96429.69;1778475;78;24351;-85
2021/11/29 10:46:18;;;;;;;;;;;;;;;0.71;95.98;96438.36;1765874;80;20273;-85
2021/11/29 10:48:47;;;;;;;;;;;;;;;0.76;95.96;96441.47;1774241;79;24842;-85
2021/11/29 10:51:18;;;;;;;;;;;;;;;0.81;95.95;96438.14;1757599;80;22097;-84
2021/11/29 10:53:52;;;;;;;;;;;;;;;0.79;95.94;96438.69;1721190;80;25972;-85
2021/11/29 10:56:19;;;;;;;;;;;;;;;0.75;95.90;96436.78;1759064;81;24530;-85
2021/11/29 10:58:47;;;;;;;;;;;;;;;0.77;95.87;96441.81;1756689;81;20339;-85
2021/11/29 11:01:17;;;;;;;;;;;;;;;0.77;95.84;96435.38;1752939;80;25618;-85
2021/11/29 11:03:56;;;;;;;;;;;;;;;0.78;95.83;96440.44;1753543;81;22082;-85
2021/11/29 11:06:27;;;;;;;;;;;;;;;0.76;95.77;96442.76;1763174;79;25951;-85
2021/11/29 11:08:54;;;;;;;;;;;;;;;0.73;95.73;96446.80;1749029;79;24633;-85
2021/11/29 11:11:28;;;;;;;;;;;;;;;0.72;95.69;96445.96;1755303;79;20580;-84
2021/11/29 11:14:08;;;;;;;;;;;;;;;0.67;95.64;96445.89;1711272;81;24669;-85
2021/11/29 11:16:45;;;;;;;;;;;;;;;0.72;95.63;96450.28;1746565;79;22032;-85
2021/11/29 11:19:22;;;;;;;;;;;;;;;0.69;95.59;96456.47;1740889;81;26608;-84
2021/11/29 11:21:48;;;;;;;;;;;;;;;0.68;95.59;96458.66;1755370;80;26423;-84
2021/11/29 11:24:21;;;;;;;;;;;;;;;0.66;95.56;96458.38;1738885;80;20393;-85
2021/11/29 11:26:49;;;;;;;;;;;;;;;0.66;95.52;96459.21;1727406;81;25551;-84
2021/11/29 11:29:16;;;;;;;;;;;;;;;0.68;95.50;96458.66;1747915;79;21909;-85
2021/11/29 11:31:42;;;;;;;;;;;;;;;0.68;95.48;96466.39;1746077;80;26175;-85
2021/11/29 11:34:08;;;;;;;;;;;;;;;0.69;95.50;96460.78;1759210;81;20828;-85
2021/11/29 11:36:37;;;;;;;;;;;;;;;0.72;95.48;96472.16;1761700;80;20503;-84
2021/11/29 11:39:05;;;;;;;;;;;;;;;0.72;95.48;96467.02;1759831;81;25678;-84
2021/11/29 11:41:32;;;;;;;;;;;;;;;0.74;95.48;96468.59;1761111;80;21978;-84
2021/11/29 11:44:00;;;;;;;;;;;;;;;0.80;95.48;96477.67;1737766;81;26031;-85
2021/11/29 11:46:28;;;;;;;;;;;;;;;0.83;95.51;96477.02;1732435;81;25723;-85
2021/11/29 11:48:56;;;;;;;;;;;;;;;0.86;95.53;96481.16;1760261;80;20491;-84
2021/11/29 11:51:22;;;;;;;;;;;;;;;0.87;95.54;96471.69;1759464;81;24615;-84
2021/11/29 11:53:48;;;;;;;;;;;;;;;0.88;95.56;96483.16;1762594;80;22676;-84
2021/11/29 11:56:14;;;;;;;;;;;;;;;0.87;95.57;96481.98;1756303;80;26866;-84
2021/11/29 11:58:48;;;;;;;;;;;;;;;0.83;95.54;96481.33;1747309;81;20267;-84
2021/11/29 12:01:21;;;;;;;;;;;;;;;0.77;95.53;96488.14;1756529;80;20289;-85
2021/11/29 12:03:47;;;;;;;;;;;;;;;0.74;95.48;96485.77;1750005;81;24833;-85
2021/11/29 12:06:18;;;;;;;;;;;;;;;0.71;95.43;96499.65;1769376;79;22009;-84
2021/11/29 12:08:47;;;;;;;;;;;;;;;0.74;95.42;96502.51;1746120;81;26135;-85
2021/11/29 12:11:27;;;;;;;;;;;;;;;0.75;95.35;96506.74;1758071;80;24588;-85
2021/11/29 12:14:13;;;;;;;;;;;;;;;0.75;95.37;96501.14;1732780;81;20405;-84
2021/11/29 12:17:02;;;;;;;;;;;;;;;0.72;95.33;96498.73;1755926;81;24984;-84
2021/11/29 12:19:27;;;;;;;;;;;;;;;0.70;95.31;96501.88;1754668;81;22089;-83
2021/11/29 12:21:59;;;;;;;;;;;;;;;0.70;95.29;96497.19;1751094;81;25974;-84
2021/11/29 12:24:27;;;;;;;;;;;;;;;0.69;95.27;96509.23;1744134;79;25189;-84
2021/11/29 12:27:06;;;;;;;;;;;;;;;0.66;95.26;96506.83;1756510;81;20732;-84
2021/11/29 12:29:34;;;;;;;;;;;;;;;0.66;95.22;96515.01;1758008;81;25464;-84
2021/11/29 12:32:04;;;;;;;;;;;;;;;0.67;95.18;96524.39;1760349;80;21990;-83
2021/11/29 12:34:47;;;;;;;;;;;;;;;0.66;95.17;96531.28;1759130;80;26774;-84
2021/11/29 12:37:20;;;;;;;;;;;;;;;0.67;95.14;96526.96;1727291;80;25112;-84
2021/11/29 12:39:49;;;;;;;;;;;;;;;0.75;95.17;96529.91;1749090;81;20257;-84
2021/11/29 12:42:26;;;;;;;;;;;;;;;0.73;95.16;96535.14;1750613;79;24860;-84
2021/11/29 12:44:53;;;;;;;;;;;;;;;0.76;95.17;96530.28;1741033;80;21984;-84
2021/11/29 12:47:22;;;;;;;;;;;;;;;0.79;95.17;96532.66;1753497;79;26039;-83
2021/11/29 12:49:49;;;;;;;;;;;;;;;0.76;95.15;96533.66;1754614;81;25454;-83
2021/11/29 12:52:20;;;;;;;;;;;;;;;0.76;95.13;96541.87;1744936;80;20423;-84
2021/11/29 12:54:46;;;;;;;;;;;;;;;0.74;95.13;96546.27;1705346;81;24837;-84
2021/11/29 12:57:19;;;;;;;;;;;;;;;0.74;95.12;96547.55;1737932;81;20363;-84
2021/11/29 12:59:50;;;;;;;;;;;;;;;0.78;95.11;96546.44;1763785;79;25986;-83